Portada
METAR-TAF:

METAR-TAF

Aeropuertos :

Aeropuerto de Ibiza

Ibiza, España

latitud: 38-52N, longitud: 001-23E, altitud: 7 m

Observación

El informe se hizo hace 44 minutos, a las 12:00 UTC
Viento 7 kt del este, variando entre este-noreste y este-sureste
Temperatura 14°C
Humedad 67%
Presión 1031 hPa
Visibilidad 10 km o más
Escasas nubes a una altura de 1500 ft
Nubes dispersas a una altura de 2800 ft

METAR: LEIB 031200Z 09007KT 060V120 9999 FEW015 SCT028 14/08 Q1031 NOSIG

Hora: 13:44 (12:44 UTC)

Pronóstico

El informe se hizo hace 4 horas y 44 minutos, a las 08:00 UTC
Pronóstico válido del 03 a las 09 UTC al 04 a las 09 UTC
Viento 11 kt del noreste
Visibilidad 10 km o más
Nubes dispersas a una altura de 2500 ft
Evolucionando progresivamente
del 03 a las 17 UTC al 03 a las 19 UTC
Viento 4 kt del norte-noroeste

TAF: LEIB 030800Z 0309/0409 05011KT 9999 SCT025 TX16/0312Z TN06/0406Z BECMG 0317/0319 33004KT

Observaciones y pronósticos meteorológicos de más de 4000 aeropuertos (mensajes METAR y TAF).

Los puntos amarillos y rojos representan las estaciones disponibles.

Ponga el ratón en el punto deseado para ver el nombre de la estación.

Haga clic para ver las observaciones y los pronósticos meteorológicos.

Para cambiar el mapa : haga clic en los botones verdes con una cruz de color negro para hacer un zoom, en el botón verde con un guión para alejar o en las flechas verdes para mapas adyacentes.


METAR-TAF: